Time;durP1;ratioP1;P1;durP2;ratioP2;P2;SDS_P1;SDS_P2;PMS_P1;PMS_P2;Temp;Humidity;BMP_temperature;BMP_pressure;BME280_temperature;BME280_humidity;BME280_pressure;Samples;Min_cycle;Max_cycle;Signal;HPM_P1;HPM_P2
2022/07/17 00:02:15;;;;;;;1.75;1.60;;;17.90;49.60;;;;;;5012575;28;20041;-72
2022/07/17 00:04:41;;;;;;;4.80;2.60;;;17.90;49.40;;;;;;5012435;28;20026;-71
2022/07/17 00:07:06;;;;;;;3.15;2.03;;;18.00;49.30;;;;;;5013470;28;20027;-72
2022/07/17 00:09:32;;;;;;;4.25;2.20;;;17.80;50.00;;;;;;5012749;28;20038;-72
2022/07/17 00:11:57;;;;;;;4.18;2.20;;;17.70;50.40;;;;;;5012237;28;20022;-71
2022/07/17 00:14:23;;;;;;;5.28;2.00;;;17.70;50.20;;;;;;5012409;28;20029;-72
2022/07/17 00:16:49;;;;;;;3.25;2.08;;;17.70;50.20;;;;;;5012312;28;20018;-71
2022/07/17 00:19:14;;;;;;;2.80;1.90;;;17.70;50.20;;;;;;5012388;28;20037;-72
2022/07/17 00:21:40;;;;;;;5.82;2.10;;;17.70;50.30;;;;;;5012260;28;20026;-72
2022/07/17 00:24:06;;;;;;;2.40;1.80;;;17.80;50.40;;;;;;5012009;28;20033;-72
2022/07/17 00:26:32;;;;;;;2.33;2.00;;;17.80;50.40;;;;;;5012207;28;20061;-72
2022/07/17 00:28:58;;;;;;;3.90;2.17;;;17.70;50.50;;;;;;5012191;28;20429;-72
2022/07/17 00:31:23;;;;;;;3.38;2.22;;;17.70;50.10;;;;;;5012082;28;20036;-72
2022/07/17 00:33:49;;;;;;;4.28;2.10;;;17.70;50.30;;;;;;5011811;28;20061;-71
2022/07/17 00:36:14;;;;;;;5.07;2.50;;;17.60;50.20;;;;;;5012037;28;20032;-71
2022/07/17 00:38:40;;;;;;;2.58;1.90;;;17.60;50.80;;;;;;5010405;28;20045;-71
2022/07/17 00:41:06;;;;;;;6.03;2.40;;;17.50;50.90;;;;;;5011309;28;20026;-72
2022/07/17 00:43:31;;;;;;;4.82;2.10;;;17.50;50.90;;;;;;5011797;28;20065;-72
2022/07/17 00:45:59;;;;;;;4.47;2.40;;;17.40;50.70;;;;;;5010643;28;20022;-71
2022/07/17 00:48:25;;;;;;;5.10;2.47;;;17.30;50.70;;;;;;5010531;28;20133;-71
2022/07/17 00:50:50;;;;;;;3.78;1.98;;;17.30;51.20;;;;;;5011695;28;20029;-71
2022/07/17 00:53:16;;;;;;;4.00;1.90;;;17.30;51.20;;;;;;5011694;28;20022;-71
2022/07/17 00:55:42;;;;;;;2.33;2.00;;;17.30;51.40;;;;;;5011652;28;20046;-72
2022/07/17 00:58:09;;;;;;;4.78;2.25;;;17.30;51.70;;;;;;5011657;28;20031;-71
2022/07/17 01:00:35;;;;;;;4.45;2.20;;;17.20;51.80;;;;;;5011589;28;20052;-72
2022/07/17 01:03:01;;;;;;;4.22;2.25;;;17.20;51.90;;;;;;5011898;28;20470;-71
2022/07/17 01:05:27;;;;;;;2.15;1.70;;;17.20;51.90;;;;;;5011647;28;20026;-71
2022/07/17 01:07:53;;;;;;;3.53;1.98;;;17.20;51.90;;;;;;5011493;28;20474;-71
2022/07/17 01:10:19;;;;;;;3.28;2.42;;;17.20;51.90;;;;;;5011446;28;20513;-87
2022/07/17 01:12:46;;;;;;;5.93;2.22;;;17.10;52.00;;;;;;5011861;28;20104;-73
2022/07/17 01:15:14;;;;;;;2.83;1.90;;;17.10;52.20;;;;;;5012549;28;20057;-83
2022/07/17 01:17:41;;;;;;;3.08;1.80;;;17.10;52.40;;;;;;5015140;28;20026;-95
2022/07/17 01:20:09;;;;;;;4.75;2.67;;;17.00;52.60;;;;;;5015174;28;20446;-91
2022/07/17 01:22:48;;;;;;;3.05;2.00;;;16.90;52.90;;;;;;5013503;28;20037;-90
2022/07/17 01:25:15;;;;;;;5.15;1.90;;;17.00;52.90;;;;;;5013286;28;20030;-93
2022/07/17 01:27:41;;;;;;;2.97;2.05;;;16.90;52.80;;;;;;5013521;28;20030;-90
2022/07/17 01:30:08;;;;;;;3.17;1.92;;;17.00;52.80;;;;;;5012927;28;20026;-91
2022/07/17 01:32:39;;;;;;;3.08;1.80;;;17.00;53.00;;;;;;5013315;28;20447;-92
2022/07/17 01:35:06;;;;;;;2.58;1.60;;;16.90;53.20;;;;;;5017064;28;20026;-90
2022/07/17 01:37:32;;;;;;;4.20;2.15;;;16.90;53.30;;;;;;5015299;28;20033;-92
2022/07/17 01:39:58;;;;;;;2.85;1.83;;;16.90;53.40;;;;;;5017401;28;20026;-92
2022/07/17 01:42:25;;;;;;;3.65;2.05;;;16.90;53.40;;;;;;5014842;28;20026;-91
2022/07/17 01:44:52;;;;;;;2.00;1.80;;;16.90;53.50;;;;;;5024058;28;20033;-83
2022/07/17 01:47:18;;;;;;;3.88;1.77;;;16.90;53.60;;;;;;5034362;28;20659;-83
2022/07/17 01:49:51;;;;;;;3.63;2.22;;;16.90;53.50;;;;;;5032838;28;20114;-82
2022/07/17 01:52:17;;;;;;;4.07;1.88;;;16.90;53.50;;;;;;5034260;28;20018;-77
2022/07/17 01:54:43;;;;;;;2.67;1.73;;;16.80;53.40;;;;;;5035392;28;20018;-78
2022/07/17 01:57:10;;;;;;;3.58;2.03;;;16.80;53.50;;;;;;5022198;28;20029;-94
2022/07/17 01:59:36;;;;;;;3.95;2.45;;;16.80;53.60;;;;;;5014114;28;20467;-94
2022/07/17 02:02:02;;;;;;;4.07;2.22;;;16.90;53.60;;;;;;5012797;28;20038;-94
2022/07/17 02:04:28;;;;;;;4.82;2.40;;;16.80;53.30;;;;;;5012625;28;20038;-91
2022/07/17 02:06:54;;;;;;;3.25;1.98;;;16.70;53.80;;;;;;5012440;28;20040;-95
2022/07/17 02:09:20;;;;;;;3.78;2.50;;;16.70;53.90;;;;;;5011218;28;20018;-93
2022/07/17 02:11:46;;;;;;;5.00;2.20;;;16.70;54.00;;;;;;5011990;28;20022;-72
2022/07/17 02:14:11;;;;;;;4.28;2.22;;;16.70;54.00;;;;;;5010580;28;20505;-72
2022/07/17 02:16:37;;;;;;;4.40;2.20;;;16.60;53.90;;;;;;5010486;28;20510;-72
2022/07/17 02:19:02;;;;;;;3.53;1.98;;;16.60;54.00;;;;;;5010408;28;20030;-72
2022/07/17 02:21:28;;;;;;;2.30;2.05;;;16.60;54.10;;;;;;5010479;28;20018;-72
2022/07/17 02:23:54;;;;;;;2.80;1.80;;;16.60;54.30;;;;;;5010368;28;20061;-71
2022/07/17 02:26:19;;;;;;;3.38;2.17;;;16.50;54.80;;;;;;5010381;28;20025;-71
2022/07/17 02:28:45;;;;;;;4.28;2.20;;;16.40;54.80;;;;;;5010306;28;20432;-71
2022/07/17 02:31:10;;;;;;;8.35;2.45;;;16.40;54.90;;;;;;5010297;28;20474;-71
2022/07/17 02:33:36;;;;;;;3.45;2.47;;;16.30;55.20;;;;;;5009952;28;20049;-72
2022/07/17 02:36:01;;;;;;;2.85;1.98;;;16.30;55.40;;;;;;5010722;28;20045;-72
2022/07/17 02:38:27;;;;;;;4.53;2.33;;;16.30;55.40;;;;;;5013048;28;20022;-72
2022/07/17 02:40:53;;;;;;;4.22;2.25;;;16.30;56.60;;;;;;5009666;28;20087;-72
2022/07/17 02:43:18;;;;;;;5.78;2.17;;;16.20;55.40;;;;;;5009839;28;20038;-71
2022/07/17 02:45:44;;;;;;;3.28;2.15;;;16.10;55.70;;;;;;5010030;28;20636;-72
2022/07/17 02:48:10;;;;;;;3.63;2.20;;;16.10;56.00;;;;;;5009612;28;20440;-73
2022/07/17 02:50:35;;;;;;;3.13;2.30;;;16.00;57.00;;;;;;5009645;28;20030;-72
2022/07/17 02:53:01;;;;;;;3.42;2.30;;;16.00;56.30;;;;;;5009657;28;20022;-72
2022/07/17 02:55:27;;;;;;;3.13;1.90;;;16.00;56.30;;;;;;5009559;28;20034;-72
2022/07/17 02:57:52;;;;;;;3.55;2.13;;;16.10;56.60;;;;;;5008391;28;20033;-71
2022/07/17 03:00:20;;;;;;;5.60;2.40;;;16.00;56.40;;;;;;5009712;28;20030;-72
2022/07/17 03:02:46;;;;;;;3.17;2.30;;;16.00;56.70;;;;;;5011091;28;20045;-71
2022/07/17 03:05:13;;;;;;;3.17;2.00;;;15.90;57.10;;;;;;5013626;28;20026;-71
2022/07/17 03:07:39;;;;;;;4.32;2.28;;;15.80;57.10;;;;;;5013163;28;20058;-71
2022/07/17 03:10:05;;;;;;;2.65;2.03;;;15.90;57.20;;;;;;5013541;28;20466;-71
2022/07/17 03:12:31;;;;;;;3.47;2.08;;;15.90;57.20;;;;;;5013044;28;20489;-71
2022/07/17 03:14:56;;;;;;;2.63;1.73;;;15.90;57.10;;;;;;5013001;28;20030;-71
2022/07/17 03:17:22;;;;;;;3.33;2.25;;;15.90;57.10;;;;;;5011571;28;20037;-71
2022/07/17 03:19:48;;;;;;;4.07;1.95;;;15.90;57.10;;;;;;5012979;28;20066;-71
2022/07/17 03:22:13;;;;;;;3.17;1.90;;;15.80;57.20;;;;;;5012917;28;20038;-71
2022/07/17 03:24:39;;;;;;;3.60;2.15;;;15.80;57.30;;;;;;5012771;28;20026;-71
2022/07/17 03:27:04;;;;;;;2.22;1.92;;;15.80;57.60;;;;;;5012646;28;20034;-71
2022/07/17 03:29:30;;;;;;;2.20;1.92;;;15.70;57.70;;;;;;5013146;28;20022;-71
2022/07/17 03:31:56;;;;;;;3.40;2.20;;;15.70;57.70;;;;;;5012882;28;20022;-73
2022/07/17 03:34:21;;;;;;;3.47;2.10;;;15.80;57.80;;;;;;5012416;28;20129;-73
2022/07/17 03:36:47;;;;;;;2.83;2.22;;;15.80;57.60;;;;;;5012823;28;20026;-72
2022/07/17 03:39:13;;;;;;;4.07;2.08;;;15.90;57.50;;;;;;5013088;28;20042;-71
2022/07/17 03:41:39;;;;;;;2.65;1.73;;;15.90;57.50;;;;;;5012935;28;20022;-72
2022/07/17 03:44:05;;;;;;;3.03;1.90;;;15.80;57.50;;;;;;5012886;28;20038;-71
2022/07/17 03:46:30;;;;;;;2.95;1.95;;;15.80;57.70;;;;;;5012884;28;20569;-76
2022/07/17 03:48:56;;;;;;;4.03;2.30;;;15.70;57.80;;;;;;5012883;28;20386;-71
2022/07/17 03:51:21;;;;;;;4.88;2.20;;;15.70;57.90;;;;;;5012751;28;20026;-71
2022/07/17 03:53:47;;;;;;;3.67;2.00;;;15.70;57.90;;;;;;5012812;28;20034;-71
2022/07/17 03:56:12;;;;;;;3.38;2.15;;;15.70;57.90;;;;;;5012721;28;20064;-71
2022/07/17 03:58:38;;;;;;;4.22;2.15;;;15.70;57.90;;;;;;5012431;28;20542;-71
2022/07/17 04:01:03;;;;;;;2.35;1.85;;;15.70;57.90;;;;;;5012241;28;20037;-71
2022/07/17 04:03:29;;;;;;;3.35;1.85;;;15.70;57.90;;;;;;5012439;28;20033;-72
2022/07/17 04:05:54;;;;;;;2.70;2.10;;;15.70;57.90;;;;;;5012477;28;20029;-71
2022/07/17 04:08:20;;;;;;;4.50;2.70;;;15.80;57.90;;;;;;5012654;28;20371;-71
2022/07/17 04:10:46;;;;;;;2.20;1.80;;;15.70;57.90;;;;;;5012756;28;20098;-71
2022/07/17 04:13:12;;;;;;;3.03;1.92;;;15.70;57.90;;;;;;5012666;28;20024;-71
2022/07/17 04:15:49;;;;;;;2.15;1.98;;;15.70;57.90;;;;;;5012104;28;20105;-71
2022/07/17 04:18:16;;;;;;;3.95;2.13;;;15.70;57.90;;;;;;5013040;28;20018;-70
2022/07/17 04:20:42;;;;;;;3.78;2.38;;;15.70;57.80;;;;;;5012313;28;20034;-72
2022/07/17 04:23:07;;;;;;;3.88;2.65;;;15.70;57.80;;;;;;5012568;28;20371;-71
2022/07/17 04:25:33;;;;;;;2.97;2.20;;;15.80;57.90;;;;;;5012932;28;20028;-71
2022/07/17 04:27:59;;;;;;;3.65;2.10;;;15.90;57.90;;;;;;5012608;28;20035;-71
2022/07/17 04:30:24;;;;;;;2.33;1.90;;;15.90;57.70;;;;;;5012150;28;20029;-71
2022/07/17 04:32:50;;;;;;;4.35;2.42;;;16.00;57.40;;;;;;5012034;28;20105;-71
2022/07/17 04:35:15;;;;;;;3.05;2.42;;;16.10;57.10;;;;;;5012200;28;20061;-71
2022/07/17 04:37:41;;;;;;;5.50;2.50;;;16.10;57.30;;;;;;5013088;28;20041;-70
2022/07/17 04:40:07;;;;;;;5.57;2.38;;;16.10;56.80;;;;;;5022877;28;20030;-71
2022/07/17 04:42:33;;;;;;;2.00;1.80;;;16.20;56.90;;;;;;5023124;28;20040;-71
2022/07/17 04:44:58;;;;;;;3.30;1.92;;;16.10;56.90;;;;;;5021720;28;20470;-71
2022/07/17 04:47:24;;;;;;;2.60;2.22;;;16.20;56.90;;;;;;5023364;28;20026;-74
2022/07/17 04:49:49;;;;;;;2.50;2.00;;;16.30;56.50;;;;;;5023740;28;20048;-72
2022/07/17 04:52:15;;;;;;;5.10;2.50;;;16.30;56.30;;;;;;5022538;28;20394;-71
2022/07/17 04:54:41;;;;;;;4.35;2.42;;;16.40;56.20;;;;;;5021320;28;20029;-72
2022/07/17 04:57:06;;;;;;;2.10;1.85;;;16.50;56.20;;;;;;5022581;28;20075;-72
2022/07/17 04:59:32;;;;;;;3.70;2.05;;;16.50;55.90;;;;;;5023401;28;20094;-71
2022/07/17 05:01:57;;;;;;;2.38;1.88;;;16.60;55.80;;;;;;5018850;28;20105;-71
2022/07/17 05:04:23;;;;;;;2.35;2.15;;;16.60;55.70;;;;;;5013912;28;20034;-71
2022/07/17 05:06:48;;;;;;;3.22;2.30;;;16.70;55.50;;;;;;5012371;28;20076;-72
2022/07/17 05:09:14;;;;;;;2.75;2.03;;;16.80;55.20;;;;;;5012655;28;20022;-71
2022/07/17 05:11:40;;;;;;;3.70;2.05;;;16.90;55.10;;;;;;5011943;28;20033;-71
2022/07/17 05:14:05;;;;;;;3.15;2.17;;;17.00;54.90;;;;;;5011980;28;20029;-71
2022/07/17 05:16:31;;;;;;;1.73;1.63;;;17.10;54.50;;;;;;5015749;28;20531;-72
2022/07/17 05:18:56;;;;;;;2.65;2.22;;;17.10;54.30;;;;;;5028308;28;20535;-72
2022/07/17 05:21:22;;;;;;;3.17;1.95;;;17.10;54.10;;;;;;5031819;28;20053;-79
2022/07/17 05:23:47;;;;;;;2.33;2.13;;;17.20;53.90;;;;;;5019224;28;20045;-91
2022/07/17 05:26:13;;;;;;;3.10;2.40;;;17.30;54.00;;;;;;5012871;28;20347;-91
2022/07/17 05:28:38;;;;;;;4.30;2.20;;;17.40;54.00;;;;;;5015335;28;20036;-86
2022/07/17 05:31:05;;;;;;;4.68;2.30;;;17.40;53.80;;;;;;5014540;28;20074;-88
2022/07/17 05:33:30;;;;;;;3.20;1.90;;;17.50;53.80;;;;;;5015707;28;20121;-90
2022/07/17 05:35:56;;;;;;;44.47;5.57;;;17.60;54.30;;;;;;5011381;28;20058;-77
2022/07/17 05:38:21;;;;;;;15.18;3.53;;;17.80;53.60;;;;;;5012013;28;20109;-77
2022/07/17 05:40:47;;;;;;;7.10;2.53;;;18.00;52.40;;;;;;5010168;28;20030;-75
2022/07/17 05:43:12;;;;;;;2.83;2.28;;;18.10;51.70;;;;;;5010454;28;20027;-78
2022/07/17 05:45:38;;;;;;;3.60;2.75;;;18.20;51.30;;;;;;5011235;28;20431;-77
2022/07/17 05:48:05;;;;;;;3.60;2.28;;;18.40;50.60;;;;;;5010198;28;20022;-74
2022/07/17 05:50:31;;;;;;;3.08;2.35;;;18.60;50.00;;;;;;5010920;28;20527;-78
2022/07/17 05:52:57;;;;;;;4.28;1.90;;;18.70;49.60;;;;;;5011459;28;20026;-75
2022/07/17 05:55:23;;;;;;;5.45;2.47;;;18.80;49.20;;;;;;5011351;28;20367;-78
2022/07/17 05:57:48;;;;;;;5.68;2.22;;;18.90;48.60;;;;;;5011169;28;20096;-75
2022/07/17 06:00:14;;;;;;;5.40;1.98;;;19.00;48.20;;;;;;5011459;28;20481;-79
2022/07/17 06:02:39;;;;;;;5.70;2.10;;;19.10;48.00;;;;;;5011196;28;20022;-75
2022/07/17 06:05:05;;;;;;;2.97;2.53;;;19.30;47.60;;;;;;5011157;28;20033;-79
2022/07/17 06:07:31;;;;;;;2.88;2.08;;;19.40;47.10;;;;;;5010795;28;20504;-78
2022/07/17 06:09:57;;;;;;;4.75;2.17;;;19.50;46.70;;;;;;5011017;28;20026;-79
2022/07/17 06:12:22;;;;;;;4.75;2.40;;;19.60;46.50;;;;;;5010974;28;20494;-79
2022/07/17 06:14:48;;;;;;;3.35;2.40;;;19.60;46.60;;;;;;5010847;28;20441;-78
2022/07/17 06:17:14;;;;;;;4.75;2.75;;;19.60;46.40;;;;;;5010926;28;20139;-75
2022/07/17 06:19:40;;;;;;;5.32;2.28;;;19.50;46.60;;;;;;5016005;28;20026;-90
2022/07/17 06:22:06;;;;;;;2.30;2.10;;;19.60;46.70;;;;;;5017287;28;20079;-82
2022/07/17 06:24:31;;;;;;;7.03;3.20;;;19.70;46.50;;;;;;5018975;28;20022;-90
2022/07/17 06:26:57;;;;;;;22.67;6.85;;;19.80;45.80;;;;;;5020783;28;20026;-89
2022/07/17 06:29:23;;;;;;;8.35;3.67;;;19.90;45.50;;;;;;5018831;28;20033;-90
2022/07/17 06:31:48;;;;;;;4.13;2.50;;;20.10;45.20;;;;;;5013808;28;20117;-80
2022/07/17 06:34:14;;;;;;;2.88;2.00;;;20.20;44.70;;;;;;5010632;28;20128;-79
2022/07/17 06:36:39;;;;;;;5.18;2.80;;;20.30;44.40;;;;;;5010419;28;20033;-79
2022/07/17 06:39:05;;;;;;;4.75;2.83;;;20.30;45.00;;;;;;5010482;28;20025;-78
2022/07/17 06:41:30;;;;;;;4.88;2.65;;;20.10;45.90;;;;;;5010912;28;20025;-81
2022/07/17 06:43:56;;;;;;;3.75;2.00;;;20.10;46.80;;;;;;5010405;28;20091;-80
2022/07/17 06:46:21;;;;;;;3.13;2.35;;;20.20;46.40;;;;;;5010827;28;20067;-79
2022/07/17 06:48:51;;;;;;;5.25;2.75;;;20.30;45.80;;;;;;5010502;28;20026;-75
2022/07/17 06:51:17;;;;;;;4.63;2.20;;;20.30;45.40;;;;;;5009257;28;20394;-80
2022/07/17 06:53:42;;;;;;;4.03;2.33;;;20.30;45.10;;;;;;5010412;28;20018;-79
2022/07/17 06:56:08;;;;;;;6.65;2.72;;;20.30;45.90;;;;;;5009318;28;20453;-79
2022/07/17 06:58:33;;;;;;;3.00;2.30;;;20.20;46.60;;;;;;5010518;28;20068;-79
2022/07/17 07:00:59;;;;;;;4.25;2.22;;;20.10;47.00;;;;;;5010726;28;20030;-80
2022/07/17 07:03:24;;;;;;;4.15;2.63;;;20.00;47.90;;;;;;5009254;28;20045;-79
2022/07/17 07:05:50;;;;;;;7.53;2.80;;;20.00;48.20;;;;;;5009102;28;20033;-80
2022/07/17 07:08:16;;;;;;;4.93;2.40;;;20.00;48.10;;;;;;5010327;28;20034;-74
2022/07/17 07:10:42;;;;;;;5.45;2.88;;;20.30;47.60;;;;;;5008912;28;20397;-81
2022/07/17 07:13:08;;;;;;;10.90;4.45;;;20.40;47.20;;;;;;5010603;28;20033;-79
2022/07/17 07:15:34;;;;;;;3.50;2.28;;;20.60;46.50;;;;;;5010541;28;20022;-75
2022/07/17 07:17:59;;;;;;;4.15;2.30;;;20.50;46.60;;;;;;5010485;28;20026;-79
2022/07/17 07:20:25;;;;;;;4.63;2.60;;;20.70;46.70;;;;;;5010237;28;20050;-76
2022/07/17 07:22:51;;;;;;;4.43;2.35;;;20.80;46.30;;;;;;5010025;28;20034;-76
2022/07/17 07:25:16;;;;;;;5.00;2.35;;;20.70;46.30;;;;;;5009078;28;20117;-80
2022/07/17 07:27:42;;;;;;;7.07;2.60;;;20.90;46.40;;;;;;5008928;28;20022;-79
2022/07/17 07:30:11;;;;;;;7.43;2.63;;;20.80;46.20;;;;;;5008952;28;20026;-72
2022/07/17 07:32:39;;;;;;;4.65;2.63;;;20.90;45.80;;;;;;5008562;28;20094;-72
2022/07/17 07:35:06;;;;;;;7.85;2.65;;;21.10;45.20;;;;;;5008766;28;20034;-72
2022/07/17 07:37:31;;;;;;;3.28;2.15;;;21.10;44.90;;;;;;5008104;28;20033;-72
2022/07/17 07:39:57;;;;;;;4.18;2.30;;;21.30;44.40;;;;;;5008731;28;20026;-72
2022/07/17 07:42:23;;;;;;;4.97;2.47;;;21.40;43.80;;;;;;5008484;28;20496;-73
2022/07/17 07:44:48;;;;;;;6.13;2.42;;;21.40;43.70;;;;;;5008652;28;20029;-72
2022/07/17 07:47:14;;;;;;;4.13;3.08;;;21.60;43.50;;;;;;5008720;28;20026;-72
2022/07/17 07:49:40;;;;;;;5.13;2.70;;;21.60;43.50;;;;;;5010768;28;20030;-72
2022/07/17 07:52:06;;;;;;;5.75;2.65;;;21.70;43.40;;;;;;5011991;28;20462;-72
2022/07/17 07:54:32;;;;;;;2.50;2.20;;;21.80;43.10;;;;;;5011659;28;20079;-77
2022/07/17 07:56:57;;;;;;;3.25;2.20;;;21.80;42.80;;;;;;5011739;28;20018;-76
2022/07/17 07:59:23;;;;;;;3.33;2.33;;;22.00;43.00;;;;;;5011995;28;20079;-77
2022/07/17 08:01:49;;;;;;;4.25;2.70;;;22.10;42.50;;;;;;5011705;28;20022;-73
2022/07/17 08:04:15;;;;;;;5.28;2.53;;;22.10;42.40;;;;;;5011940;28;20037;-74
2022/07/17 08:06:41;;;;;;;4.45;2.50;;;22.30;42.40;;;;;;5011809;28;20079;-78
2022/07/17 08:09:07;;;;;;;3.97;2.20;;;22.50;42.50;;;;;;5012805;28;20026;-74
2022/07/17 08:11:32;;;;;;;6.38;2.33;;;22.50;41.60;;;;;;5011563;28;20022;-75
2022/07/17 08:13:59;;;;;;;3.92;2.60;;;22.50;42.00;;;;;;5011603;28;20033;-75
2022/07/17 08:16:24;;;;;;;3.65;2.15;;;22.40;42.80;;;;;;5011497;28;20036;-76
2022/07/17 08:18:50;;;;;;;5.30;2.75;;;22.40;43.10;;;;;;5011568;28;20207;-76
2022/07/17 08:21:16;;;;;;;6.78;2.55;;;22.40;43.40;;;;;;5011356;28;20089;-74
2022/07/17 08:23:42;;;;;;;4.13;2.42;;;22.40;43.60;;;;;;5011222;28;20104;-76
2022/07/17 08:26:07;;;;;;;4.57;2.53;;;22.40;43.70;;;;;;5011247;28;20022;-76
2022/07/17 08:28:33;;;;;;;4.88;2.30;;;22.50;43.30;;;;;;5011564;28;20167;-74
2022/07/17 08:30:58;;;;;;;6.95;2.78;;;22.60;42.20;;;;;;5011304;28;20022;-74
2022/07/17 08:33:24;;;;;;;2.83;2.33;;;22.60;42.60;;;;;;5011423;28;20054;-77
2022/07/17 08:35:50;;;;;;;3.65;2.33;;;22.80;42.00;;;;;;5011669;28;20033;-80
2022/07/17 08:38:15;;;;;;;6.35;2.40;;;22.90;41.90;;;;;;5011457;28;20125;-80
2022/07/17 08:40:43;;;;;;;6.05;2.40;;;23.00;41.20;;;;;;5011142;28;20061;-79
2022/07/17 08:43:09;;;;;;;3.60;2.03;;;23.00;40.20;;;;;;4995814;28;20042;-73
2022/07/17 08:45:38;;;;;;;2.95;2.30;;;23.10;41.00;;;;;;5011506;28;20025;-75
2022/07/17 08:48:05;;;;;;;3.22;2.20;;;23.30;40.70;;;;;;5011141;28;20026;-73
2022/07/17 08:50:33;;;;;;;4.22;2.20;;;23.40;40.10;;;;;;5011187;28;20033;-74
2022/07/17 08:53:00;;;;;;;7.70;2.70;;;23.30;39.80;;;;;;5011097;28;20057;-74
2022/07/17 08:55:26;;;;;;;3.92;2.60;;;23.30;40.00;;;;;;5011001;28;20370;-73
2022/07/17 08:57:51;;;;;;;3.88;2.30;;;23.30;39.70;;;;;;5010849;28;20030;-74
2022/07/17 09:00:22;;;;;;;3.38;2.10;;;23.40;39.60;;;;;;5010328;28;20387;-73
2022/07/17 09:03:02;;;;;;;3.22;1.92;;;23.60;39.30;;;;;;5011028;28;20069;-74
2022/07/17 09:05:33;;;;;;;6.18;2.50;;;23.80;38.20;;;;;;5010769;28;20022;-71
2022/07/17 09:07:59;;;;;;;5.20;1.98;;;24.00;37.90;;;;;;5010512;28;20078;-73
2022/07/17 09:10:42;;;;;;;2.55;1.80;;;24.20;37.50;;;;;;5010575;28;20026;-72
2022/07/17 09:13:18;;;;;;;2.78;2.10;;;24.20;36.10;;;;;;5010377;28;20117;-73
2022/07/17 09:15:45;;;;;;;2.70;1.95;;;24.30;35.40;;;;;;5010417;28;20025;-72
2022/07/17 09:18:10;;;;;;;3.50;1.92;;;24.30;35.80;;;;;;5010653;28;20124;-72
2022/07/17 09:20:50;;;;;;;3.28;2.30;;;24.50;36.30;;;;;;5010476;28;20484;-72
2022/07/17 09:23:17;;;;;;;6.65;2.38;;;24.70;35.50;;;;;;5010416;28;20034;-72
2022/07/17 09:25:46;;;;;;;5.38;1.83;;;24.80;36.00;;;;;;5010205;28;20480;-72
2022/07/17 09:28:13;;;;;;;2.78;2.00;;;25.00;36.00;;;;;;5010110;28;20033;-72
2022/07/17 09:30:47;;;;;;;3.10;2.25;;;24.90;35.00;;;;;;5010233;28;20075;-72
2022/07/17 09:33:15;;;;;;;4.05;1.83;;;25.00;35.30;;;;;;5009871;28;20061;-72
2022/07/17 09:35:53;;;;;;;4.50;1.95;;;25.10;34.00;;;;;;5010117;28;20041;-73
2022/07/17 09:38:45;;;;;;;3.67;1.73;;;24.80;33.90;;;;;;5010226;28;20532;-71
2022/07/17 09:41:16;;;;;;;2.17;1.88;;;24.90;34.10;;;;;;5011770;28;20087;-73
2022/07/17 09:43:52;;;;;;;4.25;2.10;;;25.00;34.10;;;;;;5009923;28;20034;-73
2022/07/17 09:46:22;;;;;;;5.00;1.80;;;25.30;34.10;;;;;;5009993;28;20116;-72
2022/07/17 09:48:53;;;;;;;2.05;1.63;;;25.50;33.30;;;;;;5010087;28;20466;-73
2022/07/17 09:51:22;;;;;;;4.05;2.20;;;25.50;33.00;;;;;;5009772;28;20046;-76
2022/07/17 09:53:50;;;;;;;3.88;2.05;;;25.60;31.90;;;;;;5009878;28;20049;-74
2022/07/17 09:56:18;;;;;;;6.22;1.70;;;25.70;31.90;;;;;;5009704;28;20030;-73
2022/07/17 09:58:49;;;;;;;1.92;1.40;;;25.60;31.10;;;;;;5009731;28;20109;-71
2022/07/17 10:01:16;;;;;;;10.13;2.10;;;25.40;31.90;;;;;;5009961;28;20120;-75
2022/07/17 10:03:43;;;;;;;3.70;2.00;;;25.20;32.50;;;;;;5009922;28;20049;-72
2022/07/17 10:06:10;;;;;;;3.42;2.15;;;25.20;32.80;;;;;;5009708;28;20034;-73
2022/07/17 10:08:38;;;;;;;4.03;2.00;;;25.30;32.80;;;;;;5009673;28;20033;-73
2022/07/17 10:11:08;;;;;;;3.75;1.67;;;25.50;32.60;;;;;;5009455;28;20026;-73
2022/07/17 10:13:40;;;;;;;3.33;1.80;;;25.60;32.30;;;;;;5008694;28;20382;-73
2022/07/17 10:16:07;;;;;;;5.32;1.80;;;25.80;32.10;;;;;;5009915;28;20509;-75
2022/07/17 10:18:40;;;;;;;3.58;1.90;;;25.90;31.70;;;;;;5009114;28;20470;-73
2022/07/17 10:21:17;;;;;;;5.80;2.20;;;26.10;31.60;;;;;;5009675;28;20049;-78
2022/07/17 10:24:03;;;;;;;2.20;1.67;;;26.20;31.50;;;;;;5009568;28;20069;-77
2022/07/17 10:26:43;;;;;;;3.05;2.08;;;26.40;31.50;;;;;;5019312;28;20038;-75
2022/07/17 10:29:25;;;;;;;2.95;1.60;;;26.60;31.30;;;;;;5009444;28;20038;-73
2022/07/17 10:31:51;;;;;;;4.35;2.22;;;26.70;30.90;;;;;;5009415;28;20386;-76
2022/07/17 10:34:17;;;;;;;5.65;2.10;;;26.50;30.90;;;;;;5009129;28;20095;-73
2022/07/17 10:36:44;;;;;;;4.00;1.48;;;26.60;31.50;;;;;;5009255;28;20023;-75
2022/07/17 10:39:17;;;;;;;3.22;2.00;;;26.80;31.40;;;;;;5009042;28;20026;-73
2022/07/17 10:41:58;;;;;;;2.63;1.35;;;27.00;30.70;;;;;;5009429;28;20030;-76
2022/07/17 10:44:26;;;;;;;2.28;1.70;;;27.10;30.50;;;;;;5009108;28;20038;-77
2022/07/17 10:46:53;;;;;;;4.47;1.80;;;27.10;30.20;;;;;;5010420;28;20029;-80
2022/07/17 10:49:19;;;;;;;6.97;2.10;;;27.00;29.80;;;;;;5009175;28;20030;-73
2022/07/17 10:51:46;;;;;;;6.38;1.60;;;26.80;29.70;;;;;;5008890;28;20040;-73
2022/07/17 10:54:12;;;;;;;6.88;1.90;;;26.80;30.00;;;;;;5009078;28;20100;-75
2022/07/17 10:56:42;;;;;;;2.35;1.50;;;26.80;30.10;;;;;;5008557;28;20449;-73
2022/07/17 10:59:07;;;;;;;3.13;1.90;;;26.80;30.70;;;;;;5009123;28;20113;-73
2022/07/17 11:01:33;;;;;;;2.88;2.00;;;27.00;30.50;;;;;;5009154;28;20179;-78
2022/07/17 11:04:07;;;;;;;2.78;1.95;;;27.10;30.10;;;;;;5009927;28;20042;-75
2022/07/17 11:06:35;;;;;;;4.18;2.15;;;27.20;29.90;;;;;;5009082;28;20026;-72
2022/07/17 11:09:13;;;;;;;3.42;1.60;;;27.30;29.60;;;;;;5009073;28;20120;-76
2022/07/17 11:11:43;;;;;;;3.85;1.90;;;27.40;29.70;;;;;;5010016;28;20030;-81
2022/07/17 11:14:20;;;;;;;4.28;1.90;;;27.70;30.70;;;;;;5009336;28;20472;-82
2022/07/17 11:16:47;;;;;;;5.70;1.83;;;28.10;28.80;;;;;;5008823;28;20026;-80
2022/07/17 11:19:26;;;;;;;4.53;2.17;;;28.10;28.60;;;;;;5009275;28;20554;-80
2022/07/17 11:21:53;;;;;;;5.20;2.20;;;27.90;27.90;;;;;;5008744;28;20038;-73
2022/07/17 11:24:19;;;;;;;7.95;2.00;;;27.80;29.10;;;;;;5010743;28;20034;-81
2022/07/17 11:26:49;;;;;;;2.20;1.52;;;27.80;27.70;;;;;;5012383;28;20116;-75
2022/07/17 11:29:14;;;;;;;3.35;1.70;;;27.90;28.30;;;;;;5012216;28;20022;-80
2022/07/17 11:31:40;;;;;;;5.65;2.05;;;27.70;27.60;;;;;;5012471;28;20312;-73
2022/07/17 11:34:09;;;;;;;2.92;1.83;;;27.70;28.80;;;;;;5012083;28;20046;-82
2022/07/17 11:36:39;;;;;;;5.50;1.70;;;27.70;28.50;;;;;;5012208;28;20022;-80
2022/07/17 11:39:11;;;;;;;3.70;2.22;;;27.80;27.80;;;;;;5012593;28;20030;-80
2022/07/17 11:41:40;;;;;;;2.53;1.77;;;27.90;28.10;;;;;;5012763;28;20025;-81
2022/07/17 11:44:09;;;;;;;3.60;1.80;;;28.20;28.20;;;;;;5012050;28;20061;-81
2022/07/17 11:46:36;;;;;;;3.97;1.60;;;28.60;27.30;;;;;;5012164;28;20022;-72
2022/07/17 11:49:02;;;;;;;2.47;1.73;;;28.80;25.60;;;;;;5011581;28;20420;-73
2022/07/17 11:51:58;;;;;;;1.95;1.70;;;28.90;26.20;;;;;;5012038;28;20057;-73
2022/07/17 11:54:24;;;;;;;3.55;1.70;;;29.20;25.50;;;;;;5026764;28;20034;-73
2022/07/17 11:56:55;;;;;;;4.70;1.92;;;29.50;25.40;;;;;;5012642;28;20026;-76
2022/07/17 11:59:30;;;;;;;2.70;1.70;;;29.20;25.10;;;;;;5011993;28;20026;-73
2022/07/17 12:01:56;;;;;;;1.67;1.58;;;29.10;25.50;;;;;;5015665;28;20043;-74
2022/07/17 12:04:22;;;;;;;3.78;1.73;;;29.30;25.50;;;;;;5017343;28;20034;-78
2022/07/17 12:07:00;;;;;;;5.70;1.90;;;29.20;24.90;;;;;;5012016;28;20018;-75
2022/07/17 12:09:27;;;;;;;3.88;1.73;;;29.00;26.40;;;;;;5011988;28;20542;-74
2022/07/17 12:11:53;;;;;;;2.92;2.00;;;28.90;25.20;;;;;;5012002;28;20026;-74
2022/07/17 12:14:18;;;;;;;1.98;1.30;;;28.80;25.40;;;;;;5011283;28;20034;-73
2022/07/17 12:16:44;;;;;;;4.60;1.77;;;29.20;26.10;;;;;;5011594;28;20022;-75
2022/07/17 12:19:18;;;;;;;5.93;1.73;;;29.60;25.40;;;;;;5011474;28;20420;-73
2022/07/17 12:21:54;;;;;;;1.50;1.40;;;29.70;23.80;;;;;;5011453;28;20026;-75
2022/07/17 12:24:25;;;;;;;3.33;1.88;;;29.80;23.30;;;;;;5011359;28;20034;-77
2022/07/17 12:26:51;;;;;;;8.27;1.63;;;29.80;23.60;;;;;;5011199;28;20127;-73
2022/07/17 12:29:17;;;;;;;2.60;1.65;;;30.10;23.50;;;;;;5012797;28;20446;-80
2022/07/17 12:31:43;;;;;;;3.42;1.60;;;30.20;22.80;;;;;;5011512;28;20032;-82
2022/07/17 12:34:09;;;;;;;2.53;1.50;;;30.30;22.60;;;;;;5010735;28;20046;-80
2022/07/17 12:36:35;;;;;;;2.63;1.92;;;30.10;22.20;;;;;;5009603;28;20034;-81
2022/07/17 12:39:02;;;;;;;3.53;1.50;;;30.00;23.40;;;;;;4995329;28;20540;-80
2022/07/17 12:41:27;;;;;;;3.78;1.67;;;30.20;22.80;;;;;;5011357;28;20022;-77
2022/07/17 12:43:53;;;;;;;1.88;1.42;;;30.50;22.10;;;;;;5010761;28;20040;-73
2022/07/17 12:46:18;;;;;;;2.03;1.48;;;30.40;22.60;;;;;;5010516;28;20066;-73